Observations for SOUTHAMPTON WX CNTR, United Kingdom (EGHI)

EGHI 140820Z VRB03KT 9999 FEW020 SCT040 17/12 Q1017 
EGHI 140750Z VRB03KT 9999 FEW025 SCT045 17/13 Q1017 
EGHI 140720Z 29004KT 240V320 9999 FEW045 16/13 Q1016
EGHI 140650Z 00000KT 9999 FEW045 16/13 Q1016
EGHI 140620Z 00000KT 9999 FEW045 14/13 Q1016
EGHI 140550Z 00000KT 9999 FEW022 SCT045 13/12 Q1016 
EGHI 140520Z 00000KT 9999 FEW022 SCT042 12/12 Q1016 
EGHI 140450Z 00000KT 9999 FEW022 SCT038 12/11 Q1015 
EGHI 132120Z 33003KT 9999 FEW045 18/14 Q1012
EGHI 132050Z VRB03KT 9999 FEW037 18/14 Q1012
EGHI 132020Z 32005KT 280V360 9999 FEW032 19/14 Q1011
EGHI 131950Z 33004KT 290V010 9999 SCT035 19/14 Q1011
EGHI 131920Z 30010KT 260V330 9999 SCT035 20/13 Q1010
EGHI 131850Z 29008KT 240V330 9999 FEW040 20/13 Q1010
EGHI 131820Z 29005KT 250V340 9999 FEW040 21/13 Q1009
EGHI 131750Z 31009KT 270V350 9999 FEW040 21/13 Q1009
EGHI 131720Z 29004KT 230V350 9999 FEW040 21/13 Q1009
EGHI 131650Z 26004KT 230V290 9999 SCT036 21/13 Q1009
EGHI 131620Z 26007KT 230V300 9999 SCT036 21/12 Q1009
EGHI 131550Z 27007KT 230V300 9999 SCT036 21/13 Q1008
EGHI 131520Z 26008KT 230V300 9999 SCT035 21/13 Q1008
EGHI 131450Z 27008KT 220V310 9999 FEW035 21/13 Q1008
EGHI 131420Z 26008KT 230V290 9999 FEW034 SCT046 21/13 Q1008 
EGHI 131350Z 28008KT 250V320 9999 FEW025 SCT047 21/13 Q1008 
EGHI 131320Z 26008KT 200V300 9999 FEW025 SCT048 21/12 Q1008 
EGHI 131250Z 26008KT 220V300 9999 FEW022 SCT048 20/12 Q1008 
EGHI 131220Z 29007KT 250V350 9999 FEW022 SCT048 21/12 Q1008 
EGHI 131150Z 28006KT 250V320 9999 FEW022 BKN048 19/13 Q1008 
EGHI 131120Z 27005KT 220V300 9999 SCT022 BKN045 19/13 Q1008 
EGHI 131050Z 28007KT 250V320 9999 SCT020 BKN045 18/14 Q1008 
EGHI 131020Z 28005KT 230V320 9999 SCT020 BKN041 18/15 Q1008 
EGHI 130950Z 29005KT 250V020 9999 BKN020 18/14 Q1007
EGHI 130920Z 29004KT 250V360 9999 BKN016 17/14 Q1007
EGHI 130850Z 30004KT 250V340 9999 BKN012 17/15 Q1007
EGHI 130820Z VRB03KT 9999 FEW008 BKN014 17/15 Q1007 
EGHI 130750Z 29004KT 240V320 9999 FEW007 BKN011 16/15 Q1007